sensor_id;sensor_type;location;lat;lon;timestamp;pressure;altitude;pressure_sealevel;temperature;humidity
21956;BME280;11142;49.930;8.606;2024-02-16T00:00:14;99876.59;;;14.37;100.00
21956;BME280;11142;49.930;8.606;2024-02-16T00:02:44;99873.72;;;14.19;100.00
21956;BME280;11142;49.930;8.606;2024-02-16T00:05:13;99875.28;;;14.11;100.00
21956;BME280;11142;49.930;8.606;2024-02-16T00:07:41;99871.72;;;14.12;100.00
21956;BME280;11142;49.930;8.606;2024-02-16T00:10:11;99861.41;;;14.10;100.00
21956;BME280;11142;49.930;8.606;2024-02-16T00:12:40;99860.84;;;14.07;100.00
21956;BME280;11142;49.930;8.606;2024-02-16T00:15:09;99854.91;;;14.05;100.00
21956;BME280;11142;49.930;8.606;2024-02-16T00:17:37;99858.13;;;13.97;100.00
21956;BME280;11142;49.930;8.606;2024-02-16T00:20:07;99853.16;;;13.94;100.00
21956;BME280;11142;49.930;8.606;2024-02-16T00:22:35;99848.81;;;13.83;100.00
21956;BME280;11142;49.930;8.606;2024-02-16T00:25:07;99846.69;;;13.89;100.00
21956;BME280;11142;49.930;8.606;2024-02-16T00:27:36;99851.34;;;14.06;100.00
21956;BME280;11142;49.930;8.606;2024-02-16T00:30:07;99846.34;;;14.14;100.00
21956;BME280;11142;49.930;8.606;2024-02-16T00:32:37;99844.66;;;14.13;100.00
21956;BME280;11142;49.930;8.606;2024-02-16T00:35:06;99841.63;;;14.08;100.00
21956;BME280;11142;49.930;8.606;2024-02-16T00:37:34;99841.38;;;14.11;100.00
21956;BME280;11142;49.930;8.606;2024-02-16T00:40:06;99838.03;;;14.09;100.00
21956;BME280;11142;49.930;8.606;2024-02-16T00:42:37;99833.16;;;14.15;100.00
21956;BME280;11142;49.930;8.606;2024-02-16T00:45:06;99832.56;;;13.91;100.00
21956;BME280;11142;49.930;8.606;2024-02-16T00:47:35;99834.66;;;13.65;100.00
21956;BME280;11142;49.930;8.606;2024-02-16T00:50:05;99826.72;;;13.56;100.00
21956;BME280;11142;49.930;8.606;2024-02-16T00:52:37;99829.88;;;13.70;100.00
21956;BME280;11142;49.930;8.606;2024-02-16T00:55:07;99816.88;;;13.59;100.00
21956;BME280;11142;49.930;8.606;2024-02-16T00:57:39;99819.59;;;13.58;100.00
21956;BME280;11142;49.930;8.606;2024-02-16T01:00:11;99827.31;;;13.59;100.00
21956;BME280;11142;49.930;8.606;2024-02-16T01:02:42;99824.03;;;13.46;100.00
21956;BME280;11142;49.930;8.606;2024-02-16T01:05:11;99822.13;;;13.48;100.00
21956;BME280;11142;49.930;8.606;2024-02-16T01:07:40;99823.19;;;13.57;100.00
21956;BME280;11142;49.930;8.606;2024-02-16T01:10:10;99823.53;;;13.63;100.00
21956;BME280;11142;49.930;8.606;2024-02-16T01:12:40;99821.72;;;13.64;100.00
21956;BME280;11142;49.930;8.606;2024-02-16T01:15:09;99821.72;;;13.64;100.00
21956;BME280;11142;49.930;8.606;2024-02-16T01:17:38;99822.44;;;13.66;100.00
21956;BME280;11142;49.930;8.606;2024-02-16T01:20:08;99829.19;;;13.68;100.00
21956;BME280;11142;49.930;8.606;2024-02-16T01:22:39;99834.41;;;13.57;100.00
21956;BME280;11142;49.930;8.606;2024-02-16T01:25:08;99826.03;;;13.54;100.00
21956;BME280;11142;49.930;8.606;2024-02-16T01:27:36;99828.50;;;13.66;100.00
21956;BME280;11142;49.930;8.606;2024-02-16T01:30:07;99824.22;;;13.65;100.00
21956;BME280;11142;49.930;8.606;2024-02-16T01:32:35;99824.22;;;13.54;100.00
21956;BME280;11142;49.930;8.606;2024-02-16T01:35:04;99827.22;;;13.50;100.00
21956;BME280;11142;49.930;8.606;2024-02-16T01:37:32;99829.97;;;13.37;100.00
21956;BME280;11142;49.930;8.606;2024-02-16T01:40:00;99827.13;;;13.29;100.00
21956;BME280;11142;49.930;8.606;2024-02-16T01:42:30;99825.25;;;13.20;100.00
21956;BME280;11142;49.930;8.606;2024-02-16T01:44:58;99825.34;;;13.07;100.00
21956;BME280;11142;49.930;8.606;2024-02-16T01:47:27;99826.53;;;12.70;100.00
21956;BME280;11142;49.930;8.606;2024-02-16T01:49:56;99810.00;;;12.25;100.00
21956;BME280;11142;49.930;8.606;2024-02-16T01:52:24;99812.84;;;12.22;100.00
21956;BME280;11142;49.930;8.606;2024-02-16T01:54:52;99805.31;;;12.41;100.00
21956;BME280;11142;49.930;8.606;2024-02-16T01:57:20;99804.75;;;12.60;100.00
21956;BME280;11142;49.930;8.606;2024-02-16T01:59:49;99813.63;;;12.57;100.00
21956;BME280;11142;49.930;8.606;2024-02-16T02:42:26;99763.00;;;11.22;100.00
21956;BME280;11142;49.930;8.606;2024-02-16T02:44:55;99748.91;;;11.37;100.00
21956;BME280;11142;49.930;8.606;2024-02-16T02:47:23;99746.69;;;11.44;100.00
21956;BME280;11142;49.930;8.606;2024-02-16T02:52:39;99763.50;;;11.75;100.00
21956;BME280;11142;49.930;8.606;2024-02-16T04:56:06;99821.22;;;13.27;100.00
21956;BME280;11142;49.930;8.606;2024-02-16T04:58:40;99820.84;;;13.43;100.00
21956;BME280;11142;49.930;8.606;2024-02-16T05:01:08;99815.13;;;13.49;100.00
21956;BME280;11142;49.930;8.606;2024-02-16T05:03:36;99823.34;;;13.44;100.00
21956;BME280;11142;49.930;8.606;2024-02-16T05:06:07;99824.81;;;13.58;100.00
21956;BME280;11142;49.930;8.606;2024-02-16T05:08:35;99830.72;;;13.71;100.00
21956;BME280;11142;49.930;8.606;2024-02-16T05:11:03;99829.28;;;13.67;100.00
21956;BME280;11142;49.930;8.606;2024-02-16T05:13:36;99834.41;;;13.68;100.00
21956;BME280;11142;49.930;8.606;2024-02-16T05:16:08;99835.97;;;13.60;100.00
21956;BME280;11142;49.930;8.606;2024-02-16T06:40:50;99859.91;;;12.76;100.00
21956;BME280;11142;49.930;8.606;2024-02-16T06:43:21;99856.22;;;12.67;100.00
21956;BME280;11142;49.930;8.606;2024-02-16T06:45:49;99856.00;;;12.70;100.00
21956;BME280;11142;49.930;8.606;2024-02-16T06:48:17;99855.16;;;12.70;100.00
21956;BME280;11142;49.930;8.606;2024-02-16T06:50:45;99860.28;;;12.71;100.00
21956;BME280;11142;49.930;8.606;2024-02-16T06:53:14;99863.53;;;12.62;100.00
21956;BME280;11142;49.930;8.606;2024-02-16T06:55:42;99869.09;;;12.58;100.00
21956;BME280;11142;49.930;8.606;2024-02-16T06:58:11;99863.31;;;12.54;100.00
21956;BME280;11142;49.930;8.606;2024-02-16T07:00:39;99866.50;;;12.69;100.00
21956;BME280;11142;49.930;8.606;2024-02-16T07:03:09;99871.84;;;12.78;100.00
21956;BME280;11142;49.930;8.606;2024-02-16T07:05:37;99875.78;;;12.95;100.00
21956;BME280;11142;49.930;8.606;2024-02-16T07:08:06;99881.38;;;13.13;100.00
21956;BME280;11142;49.930;8.606;2024-02-16T07:10:35;99883.31;;;13.22;100.00
21956;BME280;11142;49.930;8.606;2024-02-16T07:13:03;99894.88;;;13.51;100.00
21956;BME280;11142;49.930;8.606;2024-02-16T07:15:33;99907.88;;;13.73;100.00
21956;BME280;11142;49.930;8.606;2024-02-16T07:18:01;99907.22;;;13.92;100.00
21956;BME280;11142;49.930;8.606;2024-02-16T07:20:31;99914.84;;;13.95;100.00
21956;BME280;11142;49.930;8.606;2024-02-16T07:22:59;99913.72;;;14.09;100.00
21956;BME280;11142;49.930;8.606;2024-02-16T07:25:27;99935.81;;;14.05;100.00
21956;BME280;11142;49.930;8.606;2024-02-16T07:27:55;99930.59;;;14.05;100.00
21956;BME280;11142;49.930;8.606;2024-02-16T07:30:25;99937.44;;;14.17;100.00
21956;BME280;11142;49.930;8.606;2024-02-16T07:33:09;99932.66;;;14.22;100.00
21956;BME280;11142;49.930;8.606;2024-02-16T07:35:38;99933.59;;;14.21;100.00
21956;BME280;11142;49.930;8.606;2024-02-16T07:38:06;99935.25;;;14.22;100.00
21956;BME280;11142;49.930;8.606;2024-02-16T07:40:34;99942.13;;;14.34;100.00
21956;BME280;11142;49.930;8.606;2024-02-16T07:43:02;99947.75;;;14.50;100.00
21956;BME280;11142;49.930;8.606;2024-02-16T07:45:31;99956.50;;;14.60;100.00
21956;BME280;11142;49.930;8.606;2024-02-16T07:48:00;99959.38;;;14.57;100.00
21956;BME280;11142;49.930;8.606;2024-02-16T07:50:33;99952.03;;;14.72;100.00
21956;BME280;11142;49.930;8.606;2024-02-16T07:53:01;99964.16;;;14.73;100.00
21956;BME280;11142;49.930;8.606;2024-02-16T07:55:29;99965.75;;;14.64;100.00
21956;BME280;11142;49.930;8.606;2024-02-16T07:57:57;99963.66;;;14.79;100.00
21956;BME280;11142;49.930;8.606;2024-02-16T08:00:25;99960.38;;;14.66;100.00
21956;BME280;11142;49.930;8.606;2024-02-16T08:02:54;99956.75;;;14.57;100.00
21956;BME280;11142;49.930;8.606;2024-02-16T08:05:22;99958.81;;;14.74;100.00
21956;BME280;11142;49.930;8.606;2024-02-16T08:07:54;99963.22;;;14.74;100.00
21956;BME280;11142;49.930;8.606;2024-02-16T08:10:22;99954.78;;;15.12;100.00
21956;BME280;11142;49.930;8.606;2024-02-16T08:12:52;99947.41;;;15.47;100.00
21956;BME280;11142;49.930;8.606;2024-02-16T08:15:20;99955.50;;;15.74;100.00
21956;BME280;11142;49.930;8.606;2024-02-16T08:17:52;99952.28;;;16.01;100.00
21956;BME280;11142;49.930;8.606;2024-02-16T08:20:21;99954.19;;;16.09;100.00
21956;BME280;11142;49.930;8.606;2024-02-16T08:22:49;99963.81;;;15.99;100.00
21956;BME280;11142;49.930;8.606;2024-02-16T08:25:18;99966.34;;;16.10;100.00
21956;BME280;11142;49.930;8.606;2024-02-16T08:27:49;99971.81;;;15.97;100.00
21956;BME280;11142;49.930;8.606;2024-02-16T08:30:22;99975.22;;;15.78;100.00
21956;BME280;11142;49.930;8.606;2024-02-16T08:32:52;99975.28;;;15.67;100.00
21956;BME280;11142;49.930;8.606;2024-02-16T08:35:21;99976.16;;;15.77;100.00
21956;BME280;11142;49.930;8.606;2024-02-16T08:37:49;99979.13;;;16.03;100.00
21956;BME280;11142;49.930;8.606;2024-02-16T08:40:18;99987.81;;;16.04;100.00
21956;BME280;11142;49.930;8.606;2024-02-16T08:42:46;99985.84;;;15.96;100.00
21956;BME280;11142;49.930;8.606;2024-02-16T08:45:17;99976.00;;;16.19;100.00
21956;BME280;11142;49.930;8.606;2024-02-16T08:47:45;99979.91;;;16.63;100.00
21956;BME280;11142;49.930;8.606;2024-02-16T08:50:18;99983.03;;;17.05;99.80
21956;BME280;11142;49.930;8.606;2024-02-16T08:52:46;99987.09;;;17.36;98.04
21956;BME280;11142;49.930;8.606;2024-02-16T08:55:15;99992.34;;;17.36;97.29
21956;BME280;11142;49.930;8.606;2024-02-16T08:57:45;99991.44;;;17.18;96.02
21956;BME280;11142;49.930;8.606;2024-02-16T09:00:15;99994.22;;;16.87;98.27
21956;BME280;11142;49.930;8.606;2024-02-16T09:02:43;99993.81;;;16.92;98.70
21956;BME280;11142;49.930;8.606;2024-02-16T09:05:13;99990.25;;;16.74;100.00
21956;BME280;11142;49.930;8.606;2024-02-16T09:07:41;99994.41;;;16.57;100.00
21956;BME280;11142;49.930;8.606;2024-02-16T09:10:09;99987.63;;;15.95;100.00
21956;BME280;11142;49.930;8.606;2024-02-16T09:12:38;99978.41;;;15.82;100.00
21956;BME280;11142;49.930;8.606;2024-02-16T09:15:09;99985.03;;;15.95;100.00
21956;BME280;11142;49.930;8.606;2024-02-16T09:17:37;99993.63;;;16.07;100.00
21956;BME280;11142;49.930;8.606;2024-02-16T09:20:07;99990.56;;;16.12;100.00
21956;BME280;11142;49.930;8.606;2024-02-16T09:22:35;100000.47;;;16.08;100.00
21956;BME280;11142;49.930;8.606;2024-02-16T09:25:05;99997.66;;;16.40;100.00
21956;BME280;11142;49.930;8.606;2024-02-16T09:27:33;100013.81;;;17.22;100.00
21956;BME280;11142;49.930;8.606;2024-02-16T09:30:01;100015.38;;;17.51;100.00
21956;BME280;11142;49.930;8.606;2024-02-16T09:32:32;100013.03;;;17.85;98.87
21956;BME280;11142;49.930;8.606;2024-02-16T09:35:00;100020.06;;;17.94;97.15
21956;BME280;11142;49.930;8.606;2024-02-16T09:37:29;100027.44;;;18.09;97.99
21956;BME280;11142;49.930;8.606;2024-02-16T09:39:56;100029.69;;;18.03;96.05
21956;BME280;11142;49.930;8.606;2024-02-16T09:42:25;100029.13;;;18.10;95.11
21956;BME280;11142;49.930;8.606;2024-02-16T09:44:54;100037.72;;;18.02;95.32
21956;BME280;11142;49.930;8.606;2024-02-16T09:47:23;100042.78;;;18.13;95.60
21956;BME280;11142;49.930;8.606;2024-02-16T09:49:57;100044.22;;;18.25;94.80
21956;BME280;11142;49.930;8.606;2024-02-16T09:52:25;100042.97;;;18.47;93.09
21956;BME280;11142;49.930;8.606;2024-02-16T09:54:53;100044.66;;;18.21;93.15
21956;BME280;11142;49.930;8.606;2024-02-16T09:57:22;100051.22;;;18.34;92.86
21956;BME280;11142;49.930;8.606;2024-02-16T09:59:50;100054.59;;;18.54;91.82
21956;BME280;11142;49.930;8.606;2024-02-16T10:02:18;100053.34;;;18.58;91.08
21956;BME280;11142;49.930;8.606;2024-02-16T10:04:46;100062.94;;;18.85;90.41
21956;BME280;11142;49.930;8.606;2024-02-16T10:07:15;100059.53;;;19.28;90.07
21956;BME280;11142;49.930;8.606;2024-02-16T10:09:44;100052.84;;;19.59;88.83
21956;BME280;11142;49.930;8.606;2024-02-16T10:12:18;100064.47;;;19.74;86.28
21956;BME280;11142;49.930;8.606;2024-02-16T10:14:53;100059.91;;;19.84;85.94
21956;BME280;11142;49.930;8.606;2024-02-16T10:17:22;100066.47;;;19.80;86.18
21956;BME280;11142;49.930;8.606;2024-02-16T10:19:55;100066.81;;;19.85;86.01
21956;BME280;11142;49.930;8.606;2024-02-16T10:22:25;100065.97;;;19.33;86.56
21956;BME280;11142;49.930;8.606;2024-02-16T10:24:53;100067.41;;;19.28;88.16
21956;BME280;11142;49.930;8.606;2024-02-16T10:27:22;100062.38;;;19.17;87.60
21956;BME280;11142;49.930;8.606;2024-02-16T10:29:53;100064.72;;;19.20;87.54
21956;BME280;11142;49.930;8.606;2024-02-16T10:32:22;100072.75;;;19.87;87.08
21956;BME280;11142;49.930;8.606;2024-02-16T10:34:51;100074.34;;;20.48;82.96
21956;BME280;11142;49.930;8.606;2024-02-16T10:37:20;100075.69;;;20.68;81.02
21956;BME280;11142;49.930;8.606;2024-02-16T10:39:51;100085.81;;;20.97;79.48
21956;BME280;11142;49.930;8.606;2024-02-16T10:42:24;100079.16;;;20.68;78.08
21956;BME280;11142;49.930;8.606;2024-02-16T10:44:55;100081.72;;;20.36;80.01
21956;BME280;11142;49.930;8.606;2024-02-16T10:47:23;100076.63;;;20.35;80.90
21956;BME280;11142;49.930;8.606;2024-02-16T10:50:02;100084.00;;;20.31;80.92
21956;BME280;11142;49.930;8.606;2024-02-16T10:52:43;100082.50;;;20.79;77.30
21956;BME280;11142;49.930;8.606;2024-02-16T10:55:15;100093.03;;;21.92;72.60
21956;BME280;11142;49.930;8.606;2024-02-16T10:57:44;100084.00;;;22.17;70.74
21956;BME280;11142;49.930;8.606;2024-02-16T11:00:15;100081.13;;;21.96;70.54
21956;BME280;11142;49.930;8.606;2024-02-16T11:02:52;100081.47;;;21.85;71.97
21956;BME280;11142;49.930;8.606;2024-02-16T11:05:33;100074.59;;;21.59;71.71
21956;BME280;11142;49.930;8.606;2024-02-16T11:08:03;100078.09;;;21.11;74.01
21956;BME280;11142;49.930;8.606;2024-02-16T11:10:34;100076.38;;;20.70;74.18
21956;BME280;11142;49.930;8.606;2024-02-16T11:13:03;100064.97;;;20.53;74.35
21956;BME280;11142;49.930;8.606;2024-02-16T11:15:35;100066.25;;;20.41;74.09
21956;BME280;11142;49.930;8.606;2024-02-16T11:18:06;100070.78;;;20.81;73.81
21956;BME280;11142;49.930;8.606;2024-02-16T11:20:38;100076.94;;;21.22;71.86
21956;BME280;11142;49.930;8.606;2024-02-16T11:23:08;100074.38;;;21.93;68.87
21956;BME280;11142;49.930;8.606;2024-02-16T11:25:38;100077.72;;;22.57;66.66
21956;BME280;11142;49.930;8.606;2024-02-16T11:28:07;100078.09;;;23.45;63.64
21956;BME280;11142;49.930;8.606;2024-02-16T11:30:37;100082.81;;;23.72;61.86
21956;BME280;11142;49.930;8.606;2024-02-16T11:33:10;100077.69;;;23.33;62.69
21956;BME280;11142;49.930;8.606;2024-02-16T11:35:39;100079.41;;;23.63;62.51
21956;BME280;11142;49.930;8.606;2024-02-16T11:38:07;100078.88;;;23.97;60.96
21956;BME280;11142;49.930;8.606;2024-02-16T11:40:38;100073.75;;;22.84;61.13
21956;BME280;11142;49.930;8.606;2024-02-16T11:43:06;100080.69;;;21.60;66.01
21956;BME280;11142;49.930;8.606;2024-02-16T11:45:36;100076.72;;;20.75;71.12
21956;BME280;11142;49.930;8.606;2024-02-16T11:48:07;100078.44;;;20.34;74.66
21956;BME280;11142;49.930;8.606;2024-02-16T11:50:37;100077.94;;;20.05;73.38
21956;BME280;11142;49.930;8.606;2024-02-16T11:53:05;100069.94;;;19.81;76.34
21956;BME280;11142;49.930;8.606;2024-02-16T11:55:34;100071.19;;;19.43;78.47
21956;BME280;11142;49.930;8.606;2024-02-16T11:58:03;100075.50;;;19.08;79.71
21956;BME280;11142;49.930;8.606;2024-02-16T12:00:32;100072.34;;;19.05;81.43
21956;BME280;11142;49.930;8.606;2024-02-16T12:03:01;100060.63;;;19.25;81.15
21956;BME280;11142;49.930;8.606;2024-02-16T12:05:29;100066.50;;;19.37;80.79
21956;BME280;11142;49.930;8.606;2024-02-16T12:07:57;100069.28;;;19.35;81.14
21956;BME280;11142;49.930;8.606;2024-02-16T12:10:26;100082.44;;;19.79;79.74
21956;BME280;11142;49.930;8.606;2024-02-16T12:12:55;100072.13;;;19.93;78.95
21956;BME280;11142;49.930;8.606;2024-02-16T12:15:29;100067.91;;;20.08;77.78
21956;BME280;11142;49.930;8.606;2024-02-16T12:18:00;100064.94;;;20.03;77.76
21956;BME280;11142;49.930;8.606;2024-02-16T12:20:30;100072.69;;;20.39;77.93
21956;BME280;11142;49.930;8.606;2024-02-16T12:23:10;100077.16;;;21.92;71.48
21956;BME280;11142;49.930;8.606;2024-02-16T12:25:38;100077.28;;;24.47;61.69
21956;BME280;11142;49.930;8.606;2024-02-16T12:28:06;100079.03;;;25.67;56.76
21956;BME280;11142;49.930;8.606;2024-02-16T12:30:36;100083.16;;;25.48;56.28
21956;BME280;11142;49.930;8.606;2024-02-16T12:33:04;100086.38;;;27.14;53.18
21956;BME280;11142;49.930;8.606;2024-02-16T12:35:33;100085.53;;;28.87;47.97
21956;BME280;11142;49.930;8.606;2024-02-16T12:38:01;100078.81;;;28.40;46.05
21956;BME280;11142;49.930;8.606;2024-02-16T12:40:29;100083.53;;;25.66;50.74
21956;BME280;11142;49.930;8.606;2024-02-16T12:42:57;100081.41;;;24.05;55.33
21956;BME280;11142;49.930;8.606;2024-02-16T12:45:25;100089.09;;;22.65;58.55
21956;BME280;11142;49.930;8.606;2024-02-16T12:47:55;100079.88;;;22.53;62.42
21956;BME280;11142;49.930;8.606;2024-02-16T12:50:24;100088.81;;;22.21;62.95
21956;BME280;11142;49.930;8.606;2024-02-16T12:52:52;100079.56;;;22.17;64.57
21956;BME280;11142;49.930;8.606;2024-02-16T12:55:30;100088.53;;;22.78;62.79
21956;BME280;11142;49.930;8.606;2024-02-16T12:57:58;100079.69;;;23.68;59.95
21956;BME280;11142;49.930;8.606;2024-02-16T13:00:27;100085.31;;;25.59;55.30
21956;BME280;11142;49.930;8.606;2024-02-16T13:02:57;100077.94;;;26.84;52.15
21956;BME280;11142;49.930;8.606;2024-02-16T13:05:24;100091.72;;;27.14;50.99
21956;BME280;11142;49.930;8.606;2024-02-16T13:07:53;100087.41;;;27.13;50.87
21956;BME280;11142;49.930;8.606;2024-02-16T13:10:21;100087.72;;;26.64;50.22
21956;BME280;11142;49.930;8.606;2024-02-16T13:12:49;100070.56;;;25.57;52.05
21956;BME280;11142;49.930;8.606;2024-02-16T13:15:18;100071.22;;;25.93;52.63
21956;BME280;11142;49.930;8.606;2024-02-16T13:18:13;100083.50;;;23.66;57.67
21956;BME280;11142;49.930;8.606;2024-02-16T13:20:43;100077.19;;;22.31;62.34
21956;BME280;11142;49.930;8.606;2024-02-16T13:23:11;100070.94;;;21.60;67.00
21956;BME280;11142;49.930;8.606;2024-02-16T13:25:41;100071.97;;;21.35;69.74
21956;BME280;11142;49.930;8.606;2024-02-16T13:28:10;100075.41;;;20.87;72.49
21956;BME280;11142;49.930;8.606;2024-02-16T13:30:38;100068.75;;;20.51;75.01
21956;BME280;11142;49.930;8.606;2024-02-16T13:33:08;100072.88;;;20.45;76.62
21956;BME280;11142;49.930;8.606;2024-02-16T13:35:37;100073.38;;;20.57;77.70
21956;BME280;11142;49.930;8.606;2024-02-16T13:38:06;100069.44;;;20.69;76.93
21956;BME280;11142;49.930;8.606;2024-02-16T13:40:35;100074.41;;;20.72;76.63
21956;BME280;11142;49.930;8.606;2024-02-16T13:43:03;100073.00;;;20.36;77.10
21956;BME280;11142;49.930;8.606;2024-02-16T13:45:48;100072.00;;;20.37;79.21
21956;BME280;11142;49.930;8.606;2024-02-16T13:48:18;100070.38;;;20.36;78.20
21956;BME280;11142;49.930;8.606;2024-02-16T13:50:47;100072.50;;;20.32;79.01
21956;BME280;11142;49.930;8.606;2024-02-16T13:53:16;100061.97;;;20.40;77.80
21956;BME280;11142;49.930;8.606;2024-02-16T13:55:48;100072.75;;;20.21;78.20
21956;BME280;11142;49.930;8.606;2024-02-16T13:58:18;100075.91;;;19.91;80.12
21956;BME280;11142;49.930;8.606;2024-02-16T14:00:46;100076.84;;;19.82;80.50
21956;BME280;11142;49.930;8.606;2024-02-16T14:03:18;100077.97;;;19.79;80.77
21956;BME280;11142;49.930;8.606;2024-02-16T14:05:46;100085.00;;;19.96;81.71
21956;BME280;11142;49.930;8.606;2024-02-16T14:08:17;100081.47;;;20.13;79.95
21956;BME280;11142;49.930;8.606;2024-02-16T14:10:46;100085.19;;;19.69;81.46
21956;BME280;11142;49.930;8.606;2024-02-16T14:13:14;100089.41;;;19.62;82.57
21956;BME280;11142;49.930;8.606;2024-02-16T14:15:43;100093.47;;;19.39;83.20
21956;BME280;11142;49.930;8.606;2024-02-16T14:18:11;100095.47;;;19.01;85.19
21956;BME280;11142;49.930;8.606;2024-02-16T14:20:54;100096.69;;;18.89;85.97
21956;BME280;11142;49.930;8.606;2024-02-16T14:23:22;100101.22;;;18.52;87.50
21956;BME280;11142;49.930;8.606;2024-02-16T14:25:50;100107.06;;;18.36;88.41
21956;BME280;11142;49.930;8.606;2024-02-16T14:28:18;100109.31;;;18.31;88.49
21956;BME280;11142;49.930;8.606;2024-02-16T14:30:47;100107.06;;;18.09;89.56
21956;BME280;11142;49.930;8.606;2024-02-16T14:33:15;100109.28;;;18.14;90.19
21956;BME280;11142;49.930;8.606;2024-02-16T14:35:56;100113.53;;;18.15;90.84
21956;BME280;11142;49.930;8.606;2024-02-16T14:38:25;100119.19;;;18.20;91.41
21956;BME280;11142;49.930;8.606;2024-02-16T14:40:54;100116.66;;;18.00;92.13
21956;BME280;11142;49.930;8.606;2024-02-16T14:43:22;100125.53;;;17.90;92.86
21956;BME280;11142;49.930;8.606;2024-02-16T14:45:51;100132.38;;;18.10;92.30
21956;BME280;11142;49.930;8.606;2024-02-16T14:48:19;100127.09;;;18.20;92.34
21956;BME280;11142;49.930;8.606;2024-02-16T14:50:47;100141.94;;;18.38;91.74
21956;BME280;11142;49.930;8.606;2024-02-16T14:53:17;100143.91;;;18.27;91.85
21956;BME280;11142;49.930;8.606;2024-02-16T14:55:45;100141.63;;;18.51;91.57
21956;BME280;11142;49.930;8.606;2024-02-16T14:58:14;100142.47;;;18.51;90.90
21956;BME280;11142;49.930;8.606;2024-02-16T15:00:43;100154.00;;;18.31;91.70
21956;BME280;11142;49.930;8.606;2024-02-16T15:03:12;100151.03;;;18.44;91.94
21956;BME280;11142;49.930;8.606;2024-02-16T15:05:41;100155.31;;;18.54;92.04
21956;BME280;11142;49.930;8.606;2024-02-16T15:08:09;100158.84;;;18.63;91.35
21956;BME280;11142;49.930;8.606;2024-02-16T15:10:39;100161.28;;;18.37;92.03
21956;BME280;11142;49.930;8.606;2024-02-16T15:13:07;100150.09;;;18.35;92.09
21956;BME280;11142;49.930;8.606;2024-02-16T15:15:36;100163.34;;;18.07;92.95
21956;BME280;11142;49.930;8.606;2024-02-16T15:18:05;100161.28;;;18.00;93.51
21956;BME280;11142;49.930;8.606;2024-02-16T15:20:33;100163.75;;;18.02;93.93
21956;BME280;11142;49.930;8.606;2024-02-16T15:23:01;100166.97;;;17.96;95.00
21956;BME280;11142;49.930;8.606;2024-02-16T15:25:30;100171.13;;;17.79;95.66
21956;BME280;11142;49.930;8.606;2024-02-16T15:27:59;100172.53;;;17.83;95.80
21956;BME280;11142;49.930;8.606;2024-02-16T15:30:28;100178.72;;;17.82;96.33
21956;BME280;11142;49.930;8.606;2024-02-16T15:32:57;100181.91;;;17.86;97.00
21956;BME280;11142;49.930;8.606;2024-02-16T15:35:25;100185.91;;;17.90;97.05
21956;BME280;11142;49.930;8.606;2024-02-16T15:37:52;100186.50;;;17.65;98.80
21956;BME280;11142;49.930;8.606;2024-02-16T15:40:21;100190.50;;;17.40;100.00
21956;BME280;11142;49.930;8.606;2024-02-16T15:43:02;100184.97;;;17.24;100.00
21956;BME280;11142;49.930;8.606;2024-02-16T15:45:32;100182.59;;;17.02;100.00
21956;BME280;11142;49.930;8.606;2024-02-16T15:48:01;100186.56;;;16.86;100.00
21956;BME280;11142;49.930;8.606;2024-02-16T15:50:29;100186.25;;;16.70;100.00
21956;BME280;11142;49.930;8.606;2024-02-16T15:52:57;100185.19;;;16.82;100.00
21956;BME280;11142;49.930;8.606;2024-02-16T15:55:25;100191.28;;;16.92;100.00
21956;BME280;11142;49.930;8.606;2024-02-16T15:57:53;100191.53;;;16.80;100.00
21956;BME280;11142;49.930;8.606;2024-02-16T16:00:23;100192.16;;;16.63;100.00
21956;BME280;11142;49.930;8.606;2024-02-16T16:02:52;100187.13;;;16.50;100.00
21956;BME280;11142;49.930;8.606;2024-02-16T16:05:21;100195.75;;;16.41;100.00
21956;BME280;11142;49.930;8.606;2024-02-16T16:07:51;100191.28;;;16.22;100.00
21956;BME280;11142;49.930;8.606;2024-02-16T16:10:20;100190.06;;;16.06;100.00
21956;BME280;11142;49.930;8.606;2024-02-16T16:12:49;100182.38;;;15.83;100.00
21956;BME280;11142;49.930;8.606;2024-02-16T16:15:17;100177.06;;;15.53;100.00
21956;BME280;11142;49.930;8.606;2024-02-16T16:17:47;100174.22;;;15.45;100.00
21956;BME280;11142;49.930;8.606;2024-02-16T16:20:15;100169.66;;;15.26;100.00
21956;BME280;11142;49.930;8.606;2024-02-16T16:22:44;100159.53;;;15.01;100.00
21956;BME280;11142;49.930;8.606;2024-02-16T16:25:12;100151.41;;;14.83;100.00
21956;BME280;11142;49.930;8.606;2024-02-16T16:27:45;100144.41;;;14.73;100.00
21956;BME280;11142;49.930;8.606;2024-02-16T16:30:13;100133.38;;;14.69;100.00
21956;BME280;11142;49.930;8.606;2024-02-16T16:32:41;100138.88;;;14.55;100.00
21956;BME280;11142;49.930;8.606;2024-02-16T16:35:11;100135.03;;;14.59;100.00
21956;BME280;11142;49.930;8.606;2024-02-16T16:37:39;100135.53;;;14.64;100.00
21956;BME280;11142;49.930;8.606;2024-02-16T16:40:08;100127.81;;;14.52;100.00
21956;BME280;11142;49.930;8.606;2024-02-16T16:42:37;100130.69;;;14.49;100.00
21956;BME280;11142;49.930;8.606;2024-02-16T16:45:06;100129.00;;;14.48;100.00
21956;BME280;11142;49.930;8.606;2024-02-16T16:47:34;100126.06;;;14.41;100.00
21956;BME280;11142;49.930;8.606;2024-02-16T16:50:03;100131.63;;;14.36;100.00
21956;BME280;11142;49.930;8.606;2024-02-16T16:52:35;100111.09;;;14.32;100.00
21956;BME280;11142;49.930;8.606;2024-02-16T16:55:05;100119.84;;;14.31;100.00
21956;BME280;11142;49.930;8.606;2024-02-16T16:57:34;100114.78;;;14.29;100.00
21956;BME280;11142;49.930;8.606;2024-02-16T17:00:02;100122.34;;;14.32;100.00
21956;BME280;11142;49.930;8.606;2024-02-16T17:02:32;100139.91;;;14.53;100.00
21956;BME280;11142;49.930;8.606;2024-02-16T17:05:01;100142.66;;;14.40;100.00